Time;durP1;ratioP1;P1;durP2;ratioP2;P2;SDS_P1;SDS_P2;PMS_P1;PMS_P2;Temp;Humidity;BMP_temperature;BMP_pressure;BME280_temperature;BME280_humidity;BME280_pressure;Samples;Min_cycle;Max_cycle;Signal;HPM_P1;HPM_P2
2023/12/07 00:01:12;;;;;;;26.63;16.80;;;0.00;99.90;;;;;;5076303;28;20470;-76
2023/12/07 00:03:39;;;;;;;28.33;16.97;;;0.00;99.90;;;;;;5055757;28;20028;-76
2023/12/07 00:06:05;;;;;;;24.83;15.03;;;0.00;99.90;;;;;;5071086;28;20046;-77
2023/12/07 00:08:31;;;;;;;22.97;14.37;;;-0.10;99.90;;;;;;5074020;28;20035;-76
2023/12/07 00:10:58;;;;;;;27.87;16.80;;;-0.10;99.90;;;;;;5079391;28;20238;-77
2023/12/07 00:13:24;;;;;;;28.00;16.40;;;-0.10;99.90;;;;;;5091853;28;20566;-77
2023/12/07 00:15:50;;;;;;;23.93;15.20;;;-0.10;99.90;;;;;;5076813;28;20035;-77
2023/12/07 00:18:16;;;;;;;34.47;18.90;;;-0.10;99.90;;;;;;5074234;28;20032;-77
2023/12/07 00:20:43;;;;;;;27.57;16.90;;;-0.10;99.90;;;;;;5077988;28;20043;-77
2023/12/07 00:23:09;;;;;;;28.00;17.77;;;-0.10;99.90;;;;;;5071498;28;20033;-78
2023/12/07 00:25:35;;;;;;;26.23;16.17;;;-0.10;99.90;;;;;;5079112;28;20030;-77
2023/12/07 00:28:03;;;;;;;25.73;15.10;;;-0.10;99.90;;;;;;5075191;28;20031;-77
2023/12/07 00:30:29;;;;;;;26.03;14.37;;;-0.10;99.90;;;;;;5073366;28;20032;-77
2023/12/07 00:32:55;;;;;;;21.33;12.80;;;-0.10;99.90;;;;;;5057507;28;20034;-78
2023/12/07 00:35:22;;;;;;;24.30;15.50;;;-0.10;99.90;;;;;;5082271;28;20027;-76
2023/12/07 00:37:48;;;;;;;22.07;13.57;;;-0.10;99.90;;;;;;5058397;28;20351;-76
2023/12/07 00:40:15;;;;;;;26.60;16.13;;;-0.10;99.90;;;;;;5097829;28;20028;-78
2023/12/07 00:42:43;;;;;;;25.57;15.10;;;-0.10;99.90;;;;;;5074755;28;20498;-77
2023/12/07 00:45:11;;;;;;;29.57;17.50;;;0.00;99.90;;;;;;5074342;28;20040;-77
2023/12/07 00:47:38;;;;;;;27.10;15.20;;;0.10;99.90;;;;;;5080619;28;20061;-78
2023/12/07 00:50:05;;;;;;;29.23;16.03;;;0.10;99.90;;;;;;5075267;28;20477;-78
2023/12/07 00:52:31;;;;;;;27.90;16.37;;;0.10;99.90;;;;;;5076980;28;20047;-78
2023/12/07 00:54:57;;;;;;;31.53;18.30;;;0.10;99.90;;;;;;5085957;28;20418;-76
2023/12/07 00:57:24;;;;;;;30.57;16.97;;;0.10;99.90;;;;;;5091464;28;20051;-77
2023/12/07 00:59:50;;;;;;;30.23;16.67;;;0.10;99.90;;;;;;5080154;28;20036;-79
2023/12/07 01:02:16;;;;;;;28.60;16.27;;;0.10;99.90;;;;;;5075945;28;20030;-77
2023/12/07 01:04:43;;;;;;;31.77;18.37;;;0.10;99.90;;;;;;5057766;28;20043;-77
2023/12/07 01:07:10;;;;;;;31.30;16.27;;;0.10;99.90;;;;;;5080970;28;20036;-76
2023/12/07 01:09:36;;;;;;;31.00;18.50;;;0.10;99.90;;;;;;5075867;28;20359;-79
2023/12/07 01:12:03;;;;;;;30.57;16.90;;;0.10;99.90;;;;;;5078431;28;20031;-76
2023/12/07 01:14:29;;;;;;;30.53;17.17;;;0.10;99.90;;;;;;5072764;28;20034;-78
2023/12/07 01:16:56;;;;;;;29.67;17.90;;;0.00;99.90;;;;;;5084299;28;20099;-77
2023/12/07 01:19:22;;;;;;;28.87;16.53;;;0.00;99.90;;;;;;5073975;28;20453;-79
2023/12/07 01:21:48;;;;;;;24.10;15.10;;;0.00;99.90;;;;;;5077257;28;20583;-76
2023/12/07 01:24:14;;;;;;;30.50;16.67;;;0.00;99.90;;;;;;5107998;27;20478;-78
2023/12/07 01:26:41;;;;;;;26.90;14.87;;;0.00;99.90;;;;;;5040906;28;20044;-77
2023/12/07 01:29:07;;;;;;;29.50;17.03;;;0.00;99.90;;;;;;5072142;28;20027;-79
2023/12/07 01:31:33;;;;;;;36.13;19.83;;;0.00;99.90;;;;;;5072323;28;20483;-76
2023/12/07 01:34:00;;;;;;;29.83;18.07;;;0.00;99.90;;;;;;5079216;28;20030;-78
2023/12/07 01:36:26;;;;;;;28.70;15.60;;;0.00;99.90;;;;;;5074234;28;20344;-79
2023/12/07 01:38:52;;;;;;;31.80;17.50;;;0.00;99.90;;;;;;5093108;28;20037;-76
2023/12/07 01:41:18;;;;;;;31.87;16.77;;;-0.10;99.90;;;;;;5081380;28;20024;-78
2023/12/07 01:43:48;;;;;;;25.40;16.27;;;0.00;99.90;;;;;;5091474;28;20028;-79
2023/12/07 01:46:16;;;;;;;25.27;15.40;;;-0.10;99.90;;;;;;5074678;28;20040;-77
2023/12/07 01:48:43;;;;;;;26.87;15.87;;;-0.10;99.90;;;;;;5092377;28;20058;-77
2023/12/07 01:51:11;;;;;;;26.97;16.07;;;-0.10;99.90;;;;;;5066092;28;20036;-75
2023/12/07 01:53:39;;;;;;;25.00;14.57;;;-0.10;99.90;;;;;;5098446;28;20517;-79
2023/12/07 01:56:07;;;;;;;25.63;15.10;;;-0.10;99.90;;;;;;5053568;28;20462;-78
2023/12/07 01:58:34;;;;;;;30.30;17.27;;;-0.20;99.90;;;;;;5100647;28;20036;-79
2023/12/07 02:01:02;;;;;;;30.60;18.70;;;-0.20;99.90;;;;;;5076344;28;20027;-77
2023/12/07 02:03:29;;;;;;;29.70;16.23;;;-0.20;99.90;;;;;;5091412;28;20463;-79
2023/12/07 02:05:58;;;;;;;25.83;15.80;;;-0.20;99.90;;;;;;5087699;28;20035;-78
2023/12/07 02:08:24;;;;;;;29.60;16.33;;;-0.20;99.90;;;;;;5089978;28;20024;-79
2023/12/07 02:10:52;;;;;;;29.33;16.60;;;-0.20;99.90;;;;;;5076788;28;20031;-78
2023/12/07 02:13:20;;;;;;;35.37;18.83;;;-0.20;99.90;;;;;;5072827;28;20552;-77
2023/12/07 02:15:47;;;;;;;28.50;17.73;;;-0.20;99.90;;;;;;5079519;28;20383;-80
2023/12/07 02:18:43;;;;;;;25.20;15.37;;;-0.30;99.90;;;;;;5084445;28;20036;-79
2023/12/07 02:21:28;;;;;;;27.60;15.13;;;-0.30;99.90;;;;;;5077486;28;20028;-78
2023/12/07 02:23:55;;;;;;;23.00;14.40;;;-0.30;99.90;;;;;;5083569;28;20039;-77
2023/12/07 02:26:34;;;;;;;26.23;14.97;;;-0.30;99.90;;;;;;5071969;28;20043;-78
2023/12/07 02:29:01;;;;;;;21.93;13.83;;;-0.30;99.90;;;;;;5061531;28;20485;-80
2023/12/07 02:31:28;;;;;;;24.13;14.60;;;-0.30;99.90;;;;;;5077120;28;20498;-78
2023/12/07 02:33:54;;;;;;;28.03;15.00;;;-0.20;99.90;;;;;;5083673;28;20490;-79
2023/12/07 02:36:24;;;;;;;27.13;15.77;;;-0.10;99.90;;;;;;5079784;28;20537;-79
2023/12/07 02:38:51;;;;;;;25.73;15.53;;;0.00;99.90;;;;;;5062228;28;20032;-79
2023/12/07 02:41:19;;;;;;;28.33;16.30;;;0.00;99.90;;;;;;5077254;28;20043;-80
2023/12/07 02:43:46;;;;;;;29.83;17.07;;;0.10;99.90;;;;;;5063037;28;20032;-78
2023/12/07 02:46:12;;;;;;;29.47;16.90;;;0.10;99.90;;;;;;5089103;28;20047;-79
2023/12/07 02:48:39;;;;;;;27.23;16.23;;;0.20;99.90;;;;;;5067560;28;20379;-78
2023/12/07 02:51:05;;;;;;;28.73;16.33;;;0.20;99.90;;;;;;5074648;28;20027;-80
2023/12/07 02:53:32;;;;;;;28.97;15.77;;;0.30;99.90;;;;;;5091791;28;20047;-77
2023/12/07 02:55:58;;;;;;;32.83;18.37;;;0.30;99.90;;;;;;5072369;28;20043;-80
2023/12/07 02:58:24;;;;;;;40.57;18.97;;;0.30;99.90;;;;;;5068822;28;20024;-78
2023/12/07 03:00:51;;;;;;;35.77;19.23;;;0.30;99.90;;;;;;5066590;28;20433;-79
2023/12/07 03:03:17;;;;;;;34.80;17.83;;;0.40;99.90;;;;;;5068527;28;20047;-78
2023/12/07 03:05:44;;;;;;;33.97;17.63;;;0.40;99.90;;;;;;5092093;28;20429;-77
2023/12/07 03:08:10;;;;;;;38.03;18.67;;;0.40;99.90;;;;;;5078558;28;20032;-78
2023/12/07 03:10:36;;;;;;;37.30;17.33;;;0.40;99.90;;;;;;5074120;28;20028;-79
2023/12/07 03:13:02;;;;;;;43.03;19.03;;;0.40;99.90;;;;;;5090739;28;20032;-79
2023/12/07 03:15:29;;;;;;;38.07;19.00;;;0.40;99.90;;;;;;5096573;28;20027;-79
2023/12/07 03:17:55;;;;;;;40.53;17.80;;;0.40;99.90;;;;;;5089672;28;20032;-81
2023/12/07 03:20:21;;;;;;;50.60;24.47;;;0.40;99.90;;;;;;5074004;28;20036;-78
2023/12/07 03:22:47;;;;;;;42.40;20.30;;;0.40;99.90;;;;;;5074971;28;20028;-80
2023/12/07 03:25:14;;;;;;;35.10;19.10;;;0.40;99.90;;;;;;5092340;28;20050;-80
2023/12/07 03:27:40;;;;;;;39.93;19.33;;;0.40;99.90;;;;;;5059005;28;20035;-80
2023/12/07 03:30:07;;;;;;;41.47;19.20;;;0.40;99.90;;;;;;5072968;28;20020;-80
2023/12/07 03:32:33;;;;;;;39.00;20.97;;;0.40;99.90;;;;;;5070137;28;20434;-78
2023/12/07 03:35:00;;;;;;;33.80;17.87;;;0.40;99.90;;;;;;5073912;28;20039;-79
2023/12/07 03:37:26;;;;;;;42.47;20.33;;;0.40;99.90;;;;;;5091737;28;20046;-81
2023/12/07 03:39:53;;;;;;;40.37;20.57;;;0.40;99.90;;;;;;5075062;28;20020;-79
2023/12/07 03:42:19;;;;;;;36.30;19.33;;;0.40;99.90;;;;;;5076225;28;20043;-79
2023/12/07 03:44:45;;;;;;;35.70;18.17;;;0.50;99.90;;;;;;5069435;28;20039;-79
2023/12/07 03:47:12;;;;;;;37.07;20.67;;;0.50;99.90;;;;;;5074277;28;20043;-79
2023/12/07 03:49:38;;;;;;;36.40;19.93;;;0.50;99.90;;;;;;5079639;28;20373;-80
2023/12/07 03:52:05;;;;;;;34.70;20.13;;;0.50;99.90;;;;;;5093471;28;20036;-75
2023/12/07 03:54:31;;;;;;;33.93;19.87;;;0.60;99.90;;;;;;5095443;27;20032;-81
2023/12/07 03:56:58;;;;;;;33.03;19.90;;;0.60;99.90;;;;;;5072001;28;20028;-77
2023/12/07 03:59:24;;;;;;;34.33;20.03;;;0.70;99.90;;;;;;5116210;27;20043;-80
2023/12/07 04:01:50;;;;;;;33.53;20.67;;;0.70;99.90;;;;;;5078468;28;20442;-78
2023/12/07 04:04:16;;;;;;;36.43;20.70;;;0.80;99.90;;;;;;5091427;28;20015;-78
2023/12/07 04:06:43;;;;;;;38.57;22.63;;;0.80;99.90;;;;;;5078140;28;20040;-80
2023/12/07 04:09:09;;;;;;;41.00;24.67;;;0.90;99.90;;;;;;5097073;27;20055;-79
2023/12/07 04:11:35;;;;;;;42.30;25.63;;;0.90;99.90;;;;;;5077676;28;20031;-79
2023/12/07 04:14:02;;;;;;;41.50;25.47;;;0.90;99.90;;;;;;5070567;28;20038;-79
2023/12/07 04:16:28;;;;;;;40.87;24.80;;;0.90;99.90;;;;;;5060190;28;20023;-79
2023/12/07 04:18:54;;;;;;;42.23;25.97;;;0.90;99.90;;;;;;5055613;28;20042;-80
2023/12/07 04:21:21;;;;;;;42.10;26.57;;;0.90;99.90;;;;;;5094222;28;20395;-77
2023/12/07 04:23:47;;;;;;;45.87;27.47;;;0.90;99.90;;;;;;5074226;28;20038;-79
2023/12/07 04:26:15;;;;;;;43.43;25.83;;;0.90;99.90;;;;;;5077655;28;20040;-78
2023/12/07 04:28:41;;;;;;;43.10;27.63;;;0.90;99.90;;;;;;5113741;27;20515;-78
2023/12/07 04:31:08;;;;;;;41.37;25.33;;;0.80;99.90;;;;;;5098069;28;20538;-76
2023/12/07 04:33:34;;;;;;;37.90;24.47;;;0.80;99.90;;;;;;5074006;28;20023;-78
2023/12/07 04:36:01;;;;;;;37.07;25.40;;;0.80;99.90;;;;;;5079090;28;20035;-79
2023/12/07 04:38:28;;;;;;;40.93;24.37;;;0.70;99.90;;;;;;5075258;28;20121;-75
2023/12/07 04:40:54;;;;;;;38.03;24.67;;;0.70;99.90;;;;;;5083823;27;20020;-78
2023/12/07 04:43:20;;;;;;;38.23;24.60;;;0.70;99.90;;;;;;5071428;28;20417;-79
2023/12/07 04:45:47;;;;;;;39.30;25.60;;;0.60;99.90;;;;;;5084383;28;20040;-79
2023/12/07 04:48:13;;;;;;;44.67;27.83;;;0.60;99.90;;;;;;5082289;28;20380;-75
2023/12/07 04:50:39;;;;;;;45.90;27.70;;;0.60;99.90;;;;;;5073924;28;20028;-75
2023/12/07 04:53:05;;;;;;;40.23;24.17;;;0.70;99.90;;;;;;5072995;28;20345;-78
2023/12/07 04:55:32;;;;;;;46.53;26.33;;;0.70;99.90;;;;;;5078468;28;20043;-77
2023/12/07 04:57:58;;;;;;;48.83;27.67;;;0.70;99.90;;;;;;5078772;28;20027;-76
2023/12/07 05:00:24;;;;;;;58.60;28.10;;;0.80;99.90;;;;;;5074674;28;20040;-74
2023/12/07 05:02:51;;;;;;;51.23;25.83;;;0.80;99.90;;;;;;5093720;28;20047;-78
2023/12/07 05:05:17;;;;;;;82.73;31.53;;;0.80;99.90;;;;;;5074993;28;20039;-78
2023/12/07 05:07:44;;;;;;;60.10;29.00;;;0.90;99.90;;;;;;5095886;28;20035;-78
2023/12/07 05:10:10;;;;;;;50.10;24.97;;;0.90;99.90;;;;;;5097254;28;20047;-77
2023/12/07 05:12:37;;;;;;;60.23;26.77;;;1.00;99.90;;;;;;5077336;28;20036;-78
2023/12/07 05:15:05;;;;;;;51.23;27.37;;;1.00;99.90;;;;;;5074215;28;20427;-78
2023/12/07 05:17:31;;;;;;;64.97;23.20;;;1.00;99.90;;;;;;5110492;27;20359;-78
2023/12/07 05:19:58;;;;;;;81.90;25.23;;;1.00;99.90;;;;;;5075480;28;20028;-76
2023/12/07 05:22:24;;;;;;;48.47;23.27;;;1.00;99.90;;;;;;5068520;28;20492;-78
2023/12/07 05:24:50;;;;;;;69.30;28.30;;;1.10;99.90;;;;;;5089453;28;20024;-78
2023/12/07 05:27:17;;;;;;;83.03;26.10;;;1.10;99.90;;;;;;5090895;28;20387;-76
2023/12/07 05:29:43;;;;;;;59.83;25.37;;;1.00;99.90;;;;;;5072645;28;20031;-76
2023/12/07 05:32:09;;;;;;;35.90;19.23;;;1.00;99.90;;;;;;5077742;28;20363;-78
2023/12/07 05:34:36;;;;;;;67.67;23.63;;;1.10;99.90;;;;;;5090848;28;20020;-78
2023/12/07 05:37:04;;;;;;;68.97;22.07;;;1.10;99.90;;;;;;5075459;28;20063;-75
2023/12/07 05:39:30;;;;;;;86.10;24.17;;;1.10;99.90;;;;;;5073300;28;20039;-78
2023/12/07 05:41:56;;;;;;;60.10;23.70;;;1.10;99.90;;;;;;5081694;28;20451;-77
2023/12/07 05:44:23;;;;;;;73.30;24.70;;;1.10;99.90;;;;;;5067495;28;20063;-77
2023/12/07 05:46:49;;;;;;;57.83;26.03;;;1.10;99.90;;;;;;5071409;28;20040;-77
2023/12/07 05:49:16;;;;;;;77.17;25.17;;;1.10;99.90;;;;;;5070982;28;20034;-76
2023/12/07 05:51:42;;;;;;;125.17;32.43;;;1.10;99.90;;;;;;5077221;28;20027;-76
2023/12/07 05:54:08;;;;;;;82.33;27.60;;;1.10;99.90;;;;;;5090047;28;20028;-77
2023/12/07 05:56:35;;;;;;;92.00;26.70;;;1.20;99.90;;;;;;5069153;28;20027;-76
2023/12/07 05:59:01;;;;;;;111.90;28.67;;;1.20;99.90;;;;;;5092617;28;20028;-75
2023/12/07 06:01:27;;;;;;;34.80;23.03;;;1.20;99.90;;;;;;5061587;28;20310;-78
2023/12/07 06:03:53;;;;;;;64.27;25.17;;;1.10;99.90;;;;;;5051041;28;20535;-75
2023/12/07 06:06:21;;;;;;;62.03;25.43;;;1.20;99.90;;;;;;5093097;28;20046;-76
2023/12/07 06:08:47;;;;;;;99.07;27.97;;;1.20;99.90;;;;;;5071255;28;20031;-76
2023/12/07 06:11:13;;;;;;;70.23;29.13;;;1.20;99.90;;;;;;5076543;28;20382;-75
2023/12/07 06:13:40;;;;;;;66.70;26.77;;;1.20;99.90;;;;;;5071934;28;20036;-77
2023/12/07 06:16:06;;;;;;;75.57;24.47;;;1.20;99.90;;;;;;5061050;28;20028;-76
2023/12/07 06:18:32;;;;;;;77.77;26.80;;;1.10;99.90;;;;;;5077503;28;20038;-77
2023/12/07 06:20:59;;;;;;;62.93;25.00;;;1.10;99.90;;;;;;5079444;28;20390;-76
2023/12/07 06:23:25;;;;;;;91.93;28.03;;;1.10;99.90;;;;;;5081287;28;20398;-75
2023/12/07 06:25:51;;;;;;;68.17;27.50;;;1.10;99.90;;;;;;5108202;27;20048;-77
2023/12/07 06:28:17;;;;;;;66.23;29.03;;;1.10;99.90;;;;;;5089224;28;20036;-77
2023/12/07 06:30:44;;;;;;;83.00;27.00;;;1.10;99.90;;;;;;5077701;28;20387;-75
2023/12/07 06:33:11;;;;;;;86.53;31.00;;;1.10;99.90;;;;;;5093222;28;20058;-75
2023/12/07 06:35:38;;;;;;;59.53;22.07;;;1.10;99.90;;;;;;5091476;28;20024;-76
2023/12/07 06:38:05;;;;;;;66.67;25.93;;;1.10;99.90;;;;;;5053312;28;20043;-74
2023/12/07 06:40:31;;;;;;;76.80;29.47;;;1.10;99.90;;;;;;5082616;27;20035;-77
2023/12/07 06:42:57;;;;;;;76.70;28.87;;;1.10;99.90;;;;;;5050783;28;20519;-80
2023/12/07 06:45:24;;;;;;;62.00;28.27;;;1.10;99.90;;;;;;5093483;28;20087;-78
2023/12/07 06:47:50;;;;;;;81.30;31.83;;;1.10;99.90;;;;;;5106382;27;20501;-76
2023/12/07 06:50:17;;;;;;;58.63;28.33;;;1.10;99.90;;;;;;5079661;28;20028;-79
2023/12/07 06:52:44;;;;;;;123.47;36.07;;;1.10;99.90;;;;;;5089999;28;20038;-77
2023/12/07 06:55:11;;;;;;;77.93;30.23;;;1.20;99.90;;;;;;5092806;28;20363;-76
2023/12/07 06:57:38;;;;;;;89.47;33.87;;;1.10;99.90;;;;;;5089614;28;20039;-78
2023/12/07 07:00:09;;;;;;;62.77;28.40;;;1.10;99.90;;;;;;5076582;28;20039;-79
2023/12/07 07:02:38;;;;;;;86.37;30.73;;;1.20;99.90;;;;;;5058538;28;20216;-76
2023/12/07 07:05:05;;;;;;;72.87;25.63;;;1.10;99.90;;;;;;5075682;28;20289;-77
2023/12/07 07:07:32;;;;;;;62.33;26.73;;;1.10;99.90;;;;;;5094252;28;20032;-77
2023/12/07 07:09:59;;;;;;;119.90;33.35;;;1.10;99.90;;;;;;5076286;28;20028;-78
2023/12/07 07:12:25;;;;;;;153.40;36.70;;;1.10;99.90;;;;;;5092114;28;20020;-78
2023/12/07 07:14:51;;;;;;;99.97;32.90;;;1.10;99.90;;;;;;5089918;28;20032;-76
2023/12/07 07:17:18;;;;;;;74.03;29.13;;;1.10;99.90;;;;;;5082599;28;20364;-77
2023/12/07 07:19:44;;;;;;;79.30;30.63;;;1.00;99.90;;;;;;5061648;28;20032;-76
2023/12/07 07:22:10;;;;;;;86.70;29.20;;;1.00;99.90;;;;;;5074649;28;20028;-77
2023/12/07 07:24:36;;;;;;;126.30;30.07;;;1.00;99.90;;;;;;5086530;28;20488;-77
2023/12/07 07:27:03;;;;;;;95.47;29.37;;;0.90;99.90;;;;;;5082002;28;21035;-76
2023/12/07 07:29:29;;;;;;;92.10;28.27;;;0.90;99.90;;;;;;5077159;28;20443;-76
2023/12/07 07:31:55;;;;;;;77.73;28.33;;;0.90;99.90;;;;;;5074968;28;20035;-78
2023/12/07 07:34:22;;;;;;;115.43;31.43;;;0.90;99.90;;;;;;5092021;28;20051;-77
2023/12/07 07:36:49;;;;;;;65.73;27.80;;;0.80;99.90;;;;;;5089973;28;20036;-77
2023/12/07 07:39:16;;;;;;;80.67;29.00;;;0.80;99.90;;;;;;5081485;28;20374;-77
2023/12/07 07:41:42;;;;;;;75.13;30.87;;;0.80;99.90;;;;;;5077314;28;20046;-78
2023/12/07 07:44:08;;;;;;;75.27;29.40;;;0.80;99.90;;;;;;5079374;28;20039;-77
2023/12/07 07:46:34;;;;;;;65.97;28.67;;;0.80;99.90;;;;;;5077213;28;20075;-79
2023/12/07 07:49:01;;;;;;;62.27;27.37;;;0.80;99.90;;;;;;5083235;28;20027;-76
2023/12/07 07:51:27;;;;;;;60.40;27.73;;;0.80;99.90;;;;;;5069812;28;20038;-77
2023/12/07 07:53:53;;;;;;;75.77;27.60;;;0.80;99.90;;;;;;5092838;28;20047;-78
2023/12/07 07:56:20;;;;;;;53.30;26.80;;;0.80;99.90;;;;;;5079407;28;20032;-77
2023/12/07 07:58:47;;;;;;;83.43;31.07;;;0.80;99.90;;;;;;5076852;28;20032;-77
2023/12/07 08:01:14;;;;;;;68.85;29.95;;;0.80;99.90;;;;;;5080406;28;20032;-77
2023/12/07 08:03:40;;;;;;;67.07;29.93;;;0.80;99.90;;;;;;5083597;28;20257;-78
2023/12/07 08:06:07;;;;;;;60.00;29.97;;;0.80;99.90;;;;;;5080759;28;20043;-79
2023/12/07 08:08:33;;;;;;;75.50;32.07;;;0.80;99.90;;;;;;5073081;28;20039;-78
2023/12/07 08:11:01;;;;;;;90.37;33.53;;;0.90;99.90;;;;;;5080688;28;20410;-75
2023/12/07 08:13:27;;;;;;;142.37;38.40;;;0.80;99.90;;;;;;5092439;28;20032;-76
2023/12/07 08:15:53;;;;;;;122.60;39.27;;;0.80;99.90;;;;;;5100074;28;20113;-77
2023/12/07 08:18:20;;;;;;;93.97;36.20;;;0.80;99.90;;;;;;5078709;28;20032;-78
2023/12/07 08:20:47;;;;;;;81.00;36.50;;;0.80;99.90;;;;;;5094784;28;20040;-77
2023/12/07 08:23:13;;;;;;;82.73;33.67;;;0.80;99.90;;;;;;5072840;28;20044;-77
2023/12/07 08:25:40;;;;;;;145.93;40.57;;;0.80;99.90;;;;;;5074589;28;20032;-78
2023/12/07 08:28:09;;;;;;;74.07;34.17;;;0.80;99.90;;;;;;5109101;27;20036;-77
2023/12/07 08:30:36;;;;;;;81.10;36.20;;;0.90;99.90;;;;;;5071253;28;20038;-79
2023/12/07 08:33:02;;;;;;;117.97;35.90;;;0.80;99.90;;;;;;5092873;28;20028;-76
2023/12/07 08:35:29;;;;;;;104.27;35.70;;;0.90;99.90;;;;;;5091322;28;20748;-76
2023/12/07 08:37:55;;;;;;;55.43;29.37;;;0.80;99.90;;;;;;5077648;28;20500;-76
2023/12/07 08:40:21;;;;;;;83.37;33.83;;;0.80;99.90;;;;;;5095468;27;20043;-76
2023/12/07 08:42:48;;;;;;;83.07;31.47;;;0.80;99.90;;;;;;5080537;28;20376;-76
2023/12/07 08:45:15;;;;;;;141.10;35.20;;;0.80;99.90;;;;;;5077592;28;20028;-76
2023/12/07 08:47:42;;;;;;;89.47;30.17;;;0.90;99.90;;;;;;5099488;28;20040;-77
2023/12/07 08:50:09;;;;;;;97.27;33.30;;;0.90;99.90;;;;;;5094528;28;20032;-75
2023/12/07 08:52:35;;;;;;;104.10;34.37;;;0.90;99.90;;;;;;5094231;28;20035;-78
2023/12/07 08:55:02;;;;;;;116.70;36.80;;;0.80;99.90;;;;;;5070306;28;20040;-78
2023/12/07 08:57:28;;;;;;;112.37;34.13;;;0.90;99.90;;;;;;5072045;28;20043;-79
2023/12/07 08:59:54;;;;;;;72.50;28.03;;;0.90;99.90;;;;;;5070803;28;20044;-76
2023/12/07 09:02:21;;;;;;;129.60;36.53;;;1.00;99.90;;;;;;5098898;28;20613;-75
2023/12/07 09:04:49;;;;;;;91.97;33.30;;;1.00;99.90;;;;;;5081772;28;20389;-75
2023/12/07 09:07:16;;;;;;;101.07;34.93;;;1.00;99.90;;;;;;5077994;28;20036;-75
2023/12/07 09:09:47;;;;;;;100.17;32.80;;;1.00;99.90;;;;;;5081390;28;20845;-76
2023/12/07 09:12:14;;;;;;;94.87;34.40;;;1.10;99.90;;;;;;5090905;28;20036;-76
2023/12/07 09:14:41;;;;;;;101.73;35.20;;;1.10;99.90;;;;;;5077817;28;20031;-76
2023/12/07 09:17:07;;;;;;;134.67;35.63;;;1.20;99.90;;;;;;5052398;28;20040;-76
2023/12/07 09:19:34;;;;;;;111.87;33.03;;;1.20;99.90;;;;;;5078078;28;20035;-76
2023/12/07 09:22:00;;;;;;;86.40;31.30;;;1.10;99.90;;;;;;5059359;28;20028;-75
2023/12/07 09:24:26;;;;;;;135.27;36.53;;;1.20;99.90;;;;;;5071103;28;20047;-76
2023/12/07 09:26:53;;;;;;;87.20;30.63;;;1.10;99.90;;;;;;5093021;28;20031;-76
2023/12/07 09:29:19;;;;;;;82.45;30.70;;;1.10;99.90;;;;;;5078575;28;20032;-74
2023/12/07 09:31:45;;;;;;;106.07;33.23;;;1.10;99.90;;;;;;5069865;28;20039;-76
2023/12/07 09:34:17;;;;;;;90.37;28.00;;;1.10;99.90;;;;;;5072013;28;20032;-76
2023/12/07 09:36:45;;;;;;;117.83;30.37;;;1.10;99.90;;;;;;5080182;28;20274;-75
2023/12/07 09:39:11;;;;;;;95.80;27.93;;;1.10;99.90;;;;;;5076296;28;20039;-76
2023/12/07 09:41:39;;;;;;;90.03;27.20;;;1.10;99.90;;;;;;5097521;27;20032;-73
2023/12/07 09:44:05;;;;;;;71.40;25.27;;;1.10;99.90;;;;;;5092678;28;20028;-76
2023/12/07 09:46:32;;;;;;;67.77;23.47;;;1.10;99.90;;;;;;5077434;28;20051;-75
2023/12/07 09:48:59;;;;;;;75.73;22.27;;;1.10;99.90;;;;;;5067605;28;20035;-74
2023/12/07 09:51:27;;;;;;;71.67;22.63;;;1.10;99.90;;;;;;5076372;28;20040;-74
2023/12/07 09:53:54;;;;;;;68.70;21.83;;;1.10;99.90;;;;;;5076543;28;20047;-76
2023/12/07 09:56:20;;;;;;;81.77;22.73;;;1.10;99.90;;;;;;5061089;28;20063;-75
2023/12/07 09:58:47;;;;;;;45.30;19.53;;;1.10;99.90;;;;;;5069098;28;20034;-76
2023/12/07 10:01:14;;;;;;;62.90;21.20;;;1.10;99.90;;;;;;5096484;27;20028;-76
2023/12/07 10:03:41;;;;;;;59.00;20.27;;;1.10;99.90;;;;;;5078619;28;20031;-75
2023/12/07 10:06:07;;;;;;;54.70;20.97;;;1.20;99.90;;;;;;5060628;28;20028;-75
2023/12/07 10:08:37;;;;;;;39.63;17.23;;;1.20;99.90;;;;;;5092525;28;20036;-76
2023/12/07 10:11:08;;;;;;;64.23;20.17;;;1.20;99.90;;;;;;5078197;28;20517;-75
2023/12/07 10:13:36;;;;;;;61.63;19.83;;;1.20;99.90;;;;;;5068903;28;20035;-75
2023/12/07 10:16:12;;;;;;;69.83;21.07;;;1.20;99.90;;;;;;5094116;28;20031;-76
2023/12/07 10:18:40;;;;;;;58.70;19.70;;;1.20;99.90;;;;;;5076144;28;20023;-76
2023/12/07 10:21:10;;;;;;;56.77;20.80;;;1.20;99.90;;;;;;5091140;28;20371;-75
2023/12/07 10:23:43;;;;;;;42.17;18.03;;;1.30;99.90;;;;;;5071603;28;20616;-76
2023/12/07 10:26:10;;;;;;;44.40;16.30;;;1.30;99.90;;;;;;5076460;28;20625;-74
2023/12/07 10:28:37;;;;;;;46.27;18.33;;;1.30;99.90;;;;;;5055966;28;20500;-77
2023/12/07 10:31:03;;;;;;;53.60;18.33;;;1.30;99.90;;;;;;5073699;28;20039;-76
2023/12/07 10:33:30;;;;;;;54.47;18.33;;;1.40;99.90;;;;;;5074858;28;20058;-75
2023/12/07 10:35:56;;;;;;;56.70;17.10;;;1.40;99.90;;;;;;5068363;28;20036;-75
2023/12/07 10:38:22;;;;;;;40.97;16.37;;;1.50;99.90;;;;;;5092204;28;20050;-74
2023/12/07 10:40:58;;;;;;;76.80;20.20;;;1.50;99.90;;;;;;5080103;27;20031;-74
2023/12/07 10:43:25;;;;;;;53.87;17.20;;;1.60;99.90;;;;;;5093742;28;20027;-74
2023/12/07 10:45:53;;;;;;;53.50;17.47;;;1.50;99.90;;;;;;5077123;28;20513;-75
2023/12/07 10:48:20;;;;;;;53.67;17.30;;;1.50;99.90;;;;;;5092480;28;20367;-75
2023/12/07 10:50:52;;;;;;;55.47;17.60;;;1.60;99.90;;;;;;5067364;28;20055;-75
2023/12/07 10:53:26;;;;;;;50.35;16.50;;;1.60;99.90;;;;;;5089819;28;20031;-74
2023/12/07 10:55:56;;;;;;;61.60;18.50;;;1.60;99.90;;;;;;5089979;28;20039;-75
2023/12/07 10:58:26;;;;;;;62.78;18.20;;;1.60;99.90;;;;;;5087763;28;20036;-74
2023/12/07 11:00:53;;;;;;;66.87;19.10;;;1.70;99.90;;;;;;5094711;27;20498;-74
2023/12/07 11:03:21;;;;;;;55.40;16.50;;;1.70;99.90;;;;;;5085210;28;20046;-74
2023/12/07 11:05:49;;;;;;;70.65;16.45;;;1.70;99.90;;;;;;5081793;27;20039;-74
2023/12/07 11:08:26;;;;;;;54.47;15.73;;;1.80;99.90;;;;;;5098038;28;20036;-75
2023/12/07 11:11:03;;;;;;;53.77;15.53;;;1.80;99.90;;;;;;5079801;28;20032;-75
2023/12/07 11:13:31;;;;;;;55.37;16.50;;;1.80;99.90;;;;;;5086847;28;20573;-75
2023/12/07 11:15:58;;;;;;;80.77;19.23;;;1.80;99.90;;;;;;5098752;28;20039;-74
2023/12/07 11:18:26;;;;;;;66.83;18.23;;;1.90;99.90;;;;;;5094538;28;20401;-75
2023/12/07 11:20:54;;;;;;;58.60;18.33;;;1.80;99.90;;;;;;5100337;28;20482;-75
2023/12/07 11:23:21;;;;;;;79.00;19.20;;;1.90;99.90;;;;;;5079621;28;20494;-75
2023/12/07 11:25:50;;;;;;;57.07;16.83;;;1.90;99.90;;;;;;5066859;28;20035;-75
2023/12/07 11:28:17;;;;;;;72.73;18.03;;;1.90;99.90;;;;;;5080834;28;20415;-75
2023/12/07 11:30:47;;;;;;;117.67;24.27;;;1.90;99.90;;;;;;5073075;27;20040;-76
2023/12/07 11:33:15;;;;;;;86.93;23.60;;;2.00;99.90;;;;;;5117246;27;20039;-75
2023/12/07 11:36:03;;;;;;;92.18;22.52;;;2.00;99.90;;;;;;5064462;27;20032;-75
2023/12/07 11:38:30;;;;;;;67.57;18.65;;;2.10;99.90;;;;;;5098897;27;20028;-75
2023/12/07 11:40:57;;;;;;;90.97;23.63;;;2.20;99.90;;;;;;5085727;27;20038;-75
2023/12/07 11:43:32;;;;;;;90.63;22.63;;;2.20;99.90;;;;;;5064123;28;20497;-75
2023/12/07 11:45:59;;;;;;;83.00;22.77;;;2.30;99.90;;;;;;5081338;28;20035;-76
2023/12/07 11:48:26;;;;;;;122.45;28.20;;;2.30;99.90;;;;;;5098188;27;20048;-75
2023/12/07 11:50:56;;;;;;;89.73;25.43;;;2.30;99.90;;;;;;5080881;28;20032;-75
2023/12/07 11:53:30;;;;;;;123.73;32.27;;;2.40;99.90;;;;;;5098740;27;20027;-75
2023/12/07 11:55:57;;;;;;;115.07;30.45;;;2.40;99.90;;;;;;5089198;28;20458;-78
2023/12/07 11:58:28;;;;;;;135.40;31.87;;;2.50;99.90;;;;;;5088166;28;20028;-76
2023/12/07 12:00:56;;;;;;;115.53;30.83;;;2.50;99.90;;;;;;5088216;27;20038;-77
2023/12/07 12:03:23;;;;;;;97.82;26.08;;;2.50;99.90;;;;;;5070116;28;20031;-75
2023/12/07 12:05:50;;;;;;;110.90;30.87;;;2.50;99.90;;;;;;5114918;27;20383;-77
2023/12/07 12:08:17;;;;;;;103.87;27.93;;;2.50;99.90;;;;;;5060816;28;20475;-76
2023/12/07 12:10:45;;;;;;;102.00;28.77;;;2.60;99.90;;;;;;5095522;28;20411;-75
2023/12/07 12:13:11;;;;;;;114.40;31.43;;;2.60;99.90;;;;;;5079536;28;20407;-75
2023/12/07 12:15:41;;;;;;;111.00;32.33;;;2.60;99.90;;;;;;5071053;28;20043;-75
2023/12/07 12:18:09;;;;;;;118.67;34.43;;;2.60;99.90;;;;;;5075230;28;20032;-76
2023/12/07 12:20:35;;;;;;;125.30;34.83;;;2.60;99.90;;;;;;5078072;28;20042;-75
2023/12/07 12:23:02;;;;;;;109.75;33.55;;;2.60;99.90;;;;;;5098823;28;20031;-75
2023/12/07 12:25:32;;;;;;;104.18;32.25;;;2.60;99.90;;;;;;5062766;28;20047;-74
2023/12/07 12:28:02;;;;;;;127.82;38.72;;;2.60;99.90;;;;;;5072320;28;20058;-75
2023/12/07 12:30:29;;;;;;;125.30;37.72;;;2.60;99.90;;;;;;5079317;28;20044;-75
2023/12/07 12:32:56;;;;;;;132.38;38.70;;;2.60;99.90;;;;;;5083635;28;20032;-75